Time;durP1;ratioP1;P1;durP2;ratioP2;P2;SDS_P1;SDS_P2;PMS_P1;PMS_P2;Temp;Humidity;BMP_temperature;BMP_pressure;BME280_temperature;BME280_humidity;BME280_pressure;Samples;Min_cycle;Max_cycle;Signal;HPM_P1;HPM_P2
2022/07/26 00:00:11;;;;;;;3.88;2.13;;;;;;;26.75;43.02;99662.16;4965014;28;20057;-89
2022/07/26 00:02:39;;;;;;;5.55;2.08;;;;;;;26.80;42.97;99669.59;4967666;28;20607;-89
2022/07/26 00:05:14;;;;;;;3.88;2.20;;;;;;;26.81;43.13;99673.97;4951575;28;20485;-90
2022/07/26 00:07:41;;;;;;;4.72;2.10;;;;;;;26.82;42.88;99675.63;4966251;28;20084;-89
2022/07/26 00:10:08;;;;;;;4.97;2.00;;;;;;;26.82;42.52;99662.00;4951084;28;20049;-89
2022/07/26 00:12:36;;;;;;;2.63;2.10;;;;;;;26.83;42.37;99659.03;4966261;28;20517;-89
2022/07/26 00:15:05;;;;;;;5.72;1.95;;;;;;;26.78;42.60;99658.94;4963192;28;20112;-89
2022/07/26 00:17:32;;;;;;;4.65;2.10;;;;;;;26.80;42.97;99669.59;4935250;28;20043;-89
2022/07/26 00:19:59;;;;;;;3.33;2.15;;;;;;;26.79;42.96;99667.94;4946190;28;20050;-90
2022/07/26 00:22:35;;;;;;;4.72;2.17;;;;;;;26.75;43.30;99678.50;4943272;28;20046;-92
2022/07/26 00:25:03;;;;;;;4.85;2.42;;;;;;;26.67;43.21;99684.38;4995589;28;20058;-93
2022/07/26 00:31:57;;;;;;;3.35;1.95;;;;;;;26.60;43.44;99676.34;4996146;28;20417;-93
2022/07/26 00:34:25;;;;;;;5.88;2.50;;;;;;;26.63;43.31;99670.38;4937215;28;20127;-87
2022/07/26 00:36:52;;;;;;;4.13;2.33;;;;;;;26.57;43.71;99671.38;4958583;28;20062;-86
2022/07/26 00:39:19;;;;;;;7.60;2.13;;;;;;;26.54;43.72;99680.03;4982071;28;20101;-86
2022/07/26 00:41:46;;;;;;;4.88;1.80;;;;;;;26.53;43.95;99681.09;4982018;28;20050;-86
2022/07/26 00:44:13;;;;;;;5.05;2.35;;;;;;;26.54;43.75;99679.22;4979751;28;20043;-86
2022/07/26 00:50:46;;;;;;;4.50;2.28;;;;;;;26.44;43.77;99690.72;4921841;28;20039;-87
2022/07/26 00:53:13;;;;;;;4.53;2.55;;;;;;;26.42;43.55;99688.22;4965828;28;20054;-87
2022/07/26 00:55:40;;;;;;;4.35;2.20;;;;;;;26.42;44.00;99692.84;4961519;28;20047;-87
2022/07/26 00:58:07;;;;;;;4.93;2.00;;;;;;;26.41;44.03;99691.22;4944023;28;20487;-87
2022/07/26 01:00:34;;;;;;;4.15;2.83;;;;;;;26.40;43.57;99686.81;4961857;28;20062;-87
2022/07/26 01:03:01;;;;;;;6.43;2.20;;;;;;;26.45;43.27;99694.25;4966056;28;20491;-87
2022/07/26 01:05:28;;;;;;;5.75;2.50;;;;;;;26.50;43.58;99697.09;4966323;28;20042;-87
2022/07/26 01:07:55;;;;;;;5.40;2.30;;;;;;;26.48;43.66;99693.78;4961756;28;20061;-87
2022/07/26 01:10:22;;;;;;;4.68;2.20;;;;;;;26.50;43.43;99697.91;4949022;28;20078;-87
2022/07/26 01:12:49;;;;;;;8.77;2.88;;;;;;;26.53;42.49;99696.63;4979287;28;20581;-87
2022/07/26 01:15:16;;;;;;;5.03;2.70;;;;;;;26.52;42.43;99700.41;4983650;28;20050;-86
2022/07/26 01:17:43;;;;;;;5.60;2.50;;;;;;;26.48;42.84;99701.94;4967761;28;20051;-87
2022/07/26 01:20:12;;;;;;;5.30;2.50;;;;;;;26.42;42.73;99701.84;4983798;28;20065;-87
2022/07/26 01:22:39;;;;;;;4.18;2.33;;;;;;;26.39;44.32;99696.06;4982205;28;20050;-87
2022/07/26 01:25:06;;;;;;;3.15;2.05;;;;;;;26.33;43.97;99692.44;4985237;28;20406;-87
2022/07/26 01:27:37;;;;;;;5.80;2.35;;;;;;;26.31;43.29;99688.28;4961488;28;20053;-87
2022/07/26 01:30:07;;;;;;;3.58;2.55;;;;;;;26.34;42.78;99695.97;4943083;28;20039;-87
2022/07/26 01:32:34;;;;;;;6.13;2.72;;;;;;;26.27;43.11;99693.38;4954501;28;20138;-87
2022/07/26 01:35:03;;;;;;;3.40;2.35;;;;;;;26.24;43.21;99698.50;4970394;28;20054;-87
2022/07/26 01:37:29;;;;;;;4.70;2.55;;;;;;;26.15;43.95;99701.56;4971639;28;20118;-87
2022/07/26 01:39:56;;;;;;;3.88;2.50;;;;;;;26.10;44.13;99708.81;4955915;28;20092;-87
2022/07/26 01:42:23;;;;;;;5.95;2.72;;;;;;;26.06;44.24;99705.75;4965658;28;20047;-86
2022/07/26 01:44:50;;;;;;;4.05;2.35;;;;;;;26.04;43.69;99712.50;4985418;28;20062;-86
2022/07/26 01:47:17;;;;;;;5.07;2.50;;;;;;;26.03;43.54;99711.69;4956567;28;20046;-86
2022/07/26 01:49:44;;;;;;;6.82;2.40;;;;;;;26.09;43.34;99708.00;4986659;28;20487;-87
2022/07/26 01:56:46;;;;;;;4.90;2.38;;;;;;;25.93;43.57;99700.59;4945439;28;20033;-87
2022/07/26 01:59:13;;;;;;;5.65;2.67;;;;;;;25.94;43.87;99699.50;4976165;28;20053;-86
2022/07/26 02:01:40;;;;;;;3.67;2.40;;;;;;;25.97;43.66;99701.75;4962582;28;20414;-86
2022/07/26 02:04:07;;;;;;;4.97;2.78;;;;;;;25.94;43.56;99694.88;4952329;28;20043;-86
2022/07/26 02:06:35;;;;;;;5.25;2.50;;;;;;;25.92;43.80;99691.56;4969039;28;20042;-86
2022/07/26 02:09:03;;;;;;;5.28;2.60;;;;;;;25.91;43.57;99700.00;4982652;28;20050;-87
2022/07/26 02:11:33;;;;;;;6.28;2.58;;;;;;;25.89;43.83;99692.06;5009551;28;20095;-86
2022/07/26 02:13:59;;;;;;;3.05;2.30;;;;;;;25.85;43.97;99693.63;4968833;28;20050;-86
2022/07/26 02:16:26;;;;;;;4.65;2.60;;;;;;;25.86;43.88;99695.28;4997415;28;20046;-86
2022/07/26 02:18:53;;;;;;;6.18;2.50;;;;;;;25.89;44.05;99702.94;4984853;28;20171;-86
2022/07/26 02:21:20;;;;;;;6.38;2.83;;;;;;;25.82;46.38;99695.94;5000756;28;20046;-86
2022/07/26 02:23:46;;;;;;;5.20;2.40;;;;;;;25.77;47.01;99702.09;4984039;28;20045;-86
2022/07/26 02:26:14;;;;;;;4.57;2.55;;;;;;;25.67;47.90;99700.00;4962349;28;20441;-86
2022/07/26 02:28:41;;;;;;;2.80;2.40;;;;;;;25.60;47.79;99699.28;4982122;28;20469;-86
2022/07/26 02:31:08;;;;;;;3.70;2.38;;;;;;;25.52;47.89;99703.19;4977404;28;20066;-86
2022/07/26 02:33:37;;;;;;;4.65;2.80;;;;;;;25.52;47.73;99716.78;4956694;28;20058;-86
2022/07/26 02:36:04;;;;;;;8.00;2.88;;;;;;;25.62;46.60;99708.06;4948129;28;20042;-87
2022/07/26 02:38:31;;;;;;;5.03;3.00;;;;;;;25.70;44.49;99702.25;4965154;28;20041;-86
2022/07/26 02:40:57;;;;;;;7.00;2.38;;;;;;;25.75;44.18;99706.97;4954023;28;20613;-86
2022/07/26 02:43:25;;;;;;;6.35;2.65;;;;;;;25.76;43.96;99709.44;4961908;28;20130;-85
2022/07/26 02:45:53;;;;;;;6.03;2.38;;;;;;;25.75;43.95;99707.78;4984903;28;20046;-86
2022/07/26 02:48:29;;;;;;;4.13;2.25;;;;;;;25.91;43.16;99703.53;4959828;28;20510;-86
2022/07/26 02:50:56;;;;;;;4.65;2.80;;;;;;;25.91;42.55;99705.44;4976900;28;20129;-86
2022/07/26 02:53:22;;;;;;;5.90;2.60;;;;;;;25.87;43.58;99707.78;4975417;28;20166;-85
2022/07/26 02:55:49;;;;;;;3.53;2.80;;;;;;;25.78;44.36;99704.59;4970199;28;20049;-89
2022/07/26 02:58:16;;;;;;;6.35;2.47;;;;;;;25.80;44.75;99708.94;4961807;28;20046;-90
2022/07/26 03:00:43;;;;;;;5.50;2.47;;;;;;;25.75;44.50;99705.06;4963559;28;20046;-89
2022/07/26 03:03:12;;;;;;;5.57;3.08;;;;;;;25.70;44.90;99702.25;4937899;28;20046;-90
2022/07/26 03:05:40;;;;;;;6.30;2.60;;;;;;;25.68;45.42;99700.81;4986613;28;20047;-88
2022/07/26 03:08:06;;;;;;;2.95;2.42;;;;;;;25.59;45.90;99700.34;4938758;28;20049;-89
2022/07/26 03:10:33;;;;;;;5.28;2.58;;;;;;;25.48;46.28;99699.28;4920349;28;20053;-89
2022/07/26 03:13:01;;;;;;;5.15;3.05;;;;;;;25.45;46.42;99701.66;4941662;28;20050;-89
2022/07/26 03:15:31;;;;;;;4.05;2.38;;;;;;;25.40;46.37;99704.28;4963036;28;20058;-89
2022/07/26 03:17:58;;;;;;;4.53;3.05;;;;;;;25.36;46.54;99706.63;4931764;28;20051;-91
2022/07/26 03:20:30;;;;;;;3.90;2.80;;;;;;;25.21;46.74;99709.78;5017669;28;20054;-89
2022/07/26 03:22:57;;;;;;;4.90;2.57;;;;;;;25.24;47.00;99712.06;4963017;28;20609;-87
2022/07/26 03:25:26;;;;;;;3.15;2.47;;;;;;;25.20;47.07;99710.88;4983758;28;20042;-86
2022/07/26 03:27:57;;;;;;;5.03;3.10;;;;;;;25.10;47.08;99714.13;4999609;28;20053;-86
2022/07/26 03:30:24;;;;;;;3.00;2.70;;;;;;;25.10;46.74;99705.97;4935158;28;20492;-85
2022/07/26 03:32:52;;;;;;;3.45;2.30;;;;;;;25.03;46.87;99707.13;4973967;28;22876;-85
2022/07/26 03:35:19;;;;;;;3.67;2.47;;;;;;;25.10;46.54;99713.31;4993548;28;20050;-87
2022/07/26 03:37:45;;;;;;;3.13;2.70;;;;;;;25.00;46.73;99713.88;4968029;28;20066;-86
2022/07/26 03:40:14;;;;;;;4.15;2.42;;;;;;;25.00;46.89;99708.44;4984089;28;20120;-85
2022/07/26 03:42:43;;;;;;;6.93;3.28;;;;;;;24.97;47.09;99711.63;4981070;28;20498;-85
2022/07/26 03:45:11;;;;;;;4.80;2.95;;;;;;;24.93;47.33;99707.72;4981596;28;20363;-85
2022/07/26 03:47:37;;;;;;;4.28;2.22;;;;;;;24.93;47.46;99710.41;4978857;28;20544;-85
2022/07/26 03:50:05;;;;;;;5.72;2.78;;;;;;;24.87;47.41;99711.38;4977330;28;20552;-86
2022/07/26 03:52:34;;;;;;;5.40;2.88;;;;;;;24.76;47.39;99712.19;4949480;28;20674;-85
2022/07/26 03:57:53;;;;;;;6.40;2.55;;;;;;;24.64;47.92;99725.69;4950415;28;20051;-84
2022/07/26 04:00:20;;;;;;;6.10;2.60;;;;;;;24.69;47.97;99723.13;4979595;28;20035;-83
2022/07/26 04:02:47;;;;;;;5.88;2.88;;;;;;;24.73;47.70;99724.31;4962344;28;20055;-84
2022/07/26 04:05:16;;;;;;;6.15;2.90;;;;;;;24.63;48.20;99732.19;4952857;28;20034;-84
2022/07/26 04:07:51;;;;;;;5.97;2.30;;;;;;;24.62;48.87;99735.97;4993010;28;20046;-84
2022/07/26 04:10:24;;;;;;;11.32;2.95;;;;;;;24.54;49.13;99728.13;4999043;28;20042;-84
2022/07/26 04:12:50;;;;;;;3.90;2.53;;;;;;;24.63;48.58;99733.03;4959313;28;20057;-84
2022/07/26 04:16:07;;;;;;;4.63;2.72;;;;;;;24.39;49.73;99732.03;4979297;28;20461;-84
2022/07/26 04:18:34;;;;;;;7.43;2.78;;;;;;;24.72;48.64;99724.53;4964186;28;20133;-83
2022/07/26 04:21:27;;;;;;;5.72;2.90;;;;;;;24.47;49.50;99729.06;4979959;28;20046;-82
2022/07/26 04:23:59;;;;;;;4.63;2.85;;;;;;;24.57;49.35;99730.38;4995646;28;20096;-83
2022/07/26 04:26:25;;;;;;;4.07;2.80;;;;;;;24.60;48.88;99733.50;4983979;28;20090;-83
2022/07/26 04:28:52;;;;;;;4.65;2.55;;;;;;;24.58;49.31;99732.88;4980637;28;20052;-83
2022/07/26 04:31:19;;;;;;;8.85;3.13;;;;;;;24.54;49.41;99736.28;4983785;28;20054;-83
2022/07/26 04:33:46;;;;;;;5.35;2.80;;;;;;;24.52;49.92;99731.06;5014091;28;20072;-83
2022/07/26 04:36:12;;;;;;;5.22;2.72;;;;;;;24.56;49.69;99737.72;4989787;28;20611;-83
2022/07/26 04:38:39;;;;;;;4.57;2.72;;;;;;;24.68;49.43;99746.75;4927748;28;20053;-86
2022/07/26 04:41:07;;;;;;;5.70;2.67;;;;;;;24.75;49.41;99735.75;4978016;28;20760;-86
2022/07/26 04:43:34;;;;;;;3.10;2.53;;;;;;;24.95;49.09;99742.78;4965792;28;20694;-86
2022/07/26 04:46:00;;;;;;;7.65;2.97;;;;;;;25.15;48.46;99743.31;4999741;28;20046;-86
2022/07/26 04:48:27;;;;;;;7.95;3.50;;;;;;;25.31;47.83;99747.25;4960214;28;20521;-86
2022/07/26 04:50:54;;;;;;;5.35;3.22;;;;;;;25.41;47.47;99743.97;4950051;28;20101;-84
2022/07/26 04:53:21;;;;;;;6.97;2.90;;;;;;;25.43;47.29;99741.84;4968727;28;20050;-84
2022/07/26 04:55:48;;;;;;;5.82;3.08;;;;;;;25.51;47.04;99736.88;4996868;28;20457;-84
2022/07/26 04:58:14;;;;;;;7.30;3.22;;;;;;;25.62;46.89;99746.13;4978497;28;20054;-85
2022/07/26 05:00:44;;;;;;;4.97;2.80;;;;;;;25.67;46.46;99754.41;4970521;28;20055;-84
2022/07/26 05:03:31;;;;;;;3.72;2.60;;;;;;;25.73;46.54;99756.16;4972001;28;20046;-84
2022/07/26 05:05:58;;;;;;;9.70;5.18;;;;;;;25.75;46.59;99750.50;4957819;28;20058;-85
2022/07/26 05:08:24;;;;;;;6.00;2.75;;;;;;;25.86;46.17;99749.69;4973617;28;20066;-87
2022/07/26 05:10:51;;;;;;;8.85;3.28;;;;;;;25.92;45.95;99756.06;4943319;28;20050;-84
2022/07/26 05:13:21;;;;;;;5.53;3.20;;;;;;;25.91;45.84;99754.41;4981320;28;20046;-84
2022/07/26 05:15:55;;;;;;;4.32;2.40;;;;;;;25.92;45.81;99756.88;4983990;28;20070;-85
2022/07/26 05:18:22;;;;;;;4.47;2.53;;;;;;;25.94;45.75;99762.91;4962438;28;20112;-86
2022/07/26 05:20:49;;;;;;;5.93;3.30;;;;;;;25.82;45.83;99774.84;4983911;28;20104;-86
2022/07/26 05:23:19;;;;;;;6.47;3.05;;;;;;;25.89;45.59;99772.84;4969772;28;20046;-84
2022/07/26 05:25:46;;;;;;;8.02;3.50;;;;;;;25.94;45.76;99770.25;4982642;28;20566;-85
2022/07/26 05:28:13;;;;;;;4.40;2.83;;;;;;;26.05;45.43;99772.13;4979946;28;20413;-84
2022/07/26 05:30:40;;;;;;;5.07;3.00;;;;;;;26.16;44.93;99756.84;4985561;28;20555;-85
2022/07/26 05:33:06;;;;;;;9.00;3.28;;;;;;;26.18;44.99;99760.13;4969222;28;20580;-86
2022/07/26 05:35:33;;;;;;;6.47;3.40;;;;;;;26.26;45.31;99758.97;4983260;28;20038;-86
2022/07/26 05:38:00;;;;;;;6.55;3.03;;;;;;;26.23;44.49;99762.16;4978899;28;20050;-85
2022/07/26 05:40:27;;;;;;;6.75;3.28;;;;;;;26.23;44.99;99768.44;4983522;28;20050;-83
2022/07/26 05:42:53;;;;;;;5.65;3.03;;;;;;;26.33;44.39;99765.06;4970123;28;20050;-87
2022/07/26 05:45:20;;;;;;;12.55;2.97;;;;;;;26.34;44.55;99770.28;5000016;28;20490;-87
2022/07/26 05:47:51;;;;;;;7.95;3.83;;;;;;;26.31;44.01;99765.34;5000970;28;20391;-88
2022/07/26 05:50:18;;;;;;;6.55;3.33;;;;;;;26.32;44.29;99766.16;4954589;28;20043;-87
2022/07/26 05:52:45;;;;;;;6.25;3.40;;;;;;;26.30;44.18;99769.09;4963480;28;20097;-87
2022/07/26 05:55:11;;;;;;;7.10;3.17;;;;;;;26.18;44.37;99788.22;4979358;28;20057;-86
2022/07/26 05:57:41;;;;;;;8.50;3.30;;;;;;;26.21;44.30;99778.72;5011093;28;20049;-87
2022/07/26 06:00:09;;;;;;;8.00;3.70;;;;;;;26.25;44.30;99781.78;4985539;28;20376;-87
2022/07/26 06:02:39;;;;;;;6.57;3.28;;;;;;;26.17;44.25;99780.28;4984452;28;20804;-87
2022/07/26 06:05:07;;;;;;;4.57;3.00;;;;;;;26.12;44.15;99785.59;4984262;28;20133;-87
2022/07/26 06:07:34;;;;;;;6.07;3.17;;;;;;;25.98;44.67;99785.88;5013094;28;20479;-87
2022/07/26 06:10:01;;;;;;;6.57;3.25;;;;;;;25.99;44.70;99779.34;4971419;28;20490;-87
2022/07/26 06:12:28;;;;;;;4.30;2.70;;;;;;;25.95;45.46;99775.47;4975762;28;20046;-87
2022/07/26 06:14:54;;;;;;;7.60;3.22;;;;;;;26.02;44.81;99785.38;4963239;28;20046;-86
2022/07/26 06:17:21;;;;;;;5.82;2.95;;;;;;;26.09;44.83;99780.66;4973138;28;20046;-88
2022/07/26 06:19:48;;;;;;;5.07;3.17;;;;;;;26.11;44.69;99783.97;4998661;28;20489;-87
2022/07/26 06:22:15;;;;;;;8.38;3.45;;;;;;;26.24;44.63;99780.97;4934082;28;20054;-86
2022/07/26 06:24:43;;;;;;;5.30;3.28;;;;;;;26.13;45.54;99779.09;4968662;28;20509;-87
2022/07/26 06:27:10;;;;;;;9.27;3.00;;;;;;;26.05;44.83;99785.72;4950649;28;20449;-87
2022/07/26 06:29:37;;;;;;;4.90;2.88;;;;;;;26.01;44.81;99784.56;4966834;28;20081;-87
2022/07/26 06:32:04;;;;;;;6.45;2.85;;;;;;;26.02;44.80;99779.94;4984579;28;20050;-87
2022/07/26 06:34:31;;;;;;;3.50;2.60;;;;;;;25.96;44.87;99788.00;4969359;28;20047;-87
2022/07/26 06:36:57;;;;;;;5.75;2.70;;;;;;;26.04;44.20;99785.97;4978122;28;20054;-87
2022/07/26 06:39:25;;;;;;;7.82;2.55;;;;;;;25.97;44.26;99789.63;4953526;28;20047;-87
2022/07/26 06:41:52;;;;;;;6.32;2.67;;;;;;;25.97;44.35;99783.38;4985792;28;20046;-88
2022/07/26 06:44:21;;;;;;;7.80;3.13;;;;;;;25.92;44.16;99786.78;4997507;28;20393;-87
2022/07/26 06:46:48;;;;;;;3.85;2.17;;;;;;;25.84;44.65;99789.03;4975007;28;20064;-84
2022/07/26 06:49:15;;;;;;;7.90;2.63;;;;;;;25.97;44.57;99792.34;4969461;28;20112;-88
2022/07/26 06:51:48;;;;;;;5.25;2.30;;;;;;;26.04;44.19;99786.78;4976031;28;20046;-88
2022/07/26 06:54:14;;;;;;;12.43;3.45;;;;;;;26.09;44.04;99788.81;4949060;28;20050;-87
2022/07/26 06:56:41;;;;;;;3.60;2.50;;;;;;;26.12;44.14;99791.03;4954710;28;20356;-88
2022/07/26 06:59:08;;;;;;;4.40;2.30;;;;;;;26.08;44.03;99796.16;4979629;28;20054;-87
2022/07/26 07:01:36;;;;;;;6.90;2.70;;;;;;;26.01;43.87;99790.00;4952541;28;20487;-87
2022/07/26 07:04:23;;;;;;;7.18;2.50;;;;;;;26.08;44.08;99796.16;4974560;28;20070;-87
2022/07/26 07:06:49;;;;;;;7.93;2.92;;;;;;;26.01;44.24;99781.00;4966038;28;20129;-88
2022/07/26 07:09:16;;;;;;;5.85;2.88;;;;;;;26.01;44.49;99787.28;4998602;28;20490;-87
2022/07/26 07:11:44;;;;;;;6.18;2.97;;;;;;;26.03;45.23;99778.84;4982679;28;20042;-88
2022/07/26 07:14:15;;;;;;;2.83;2.50;;;;;;;26.12;45.52;99794.59;4980709;28;20038;-86
2022/07/26 07:16:41;;;;;;;4.35;2.63;;;;;;;25.92;45.62;99791.41;5000091;28;20604;-82
2022/07/26 07:19:08;;;;;;;5.95;2.70;;;;;;;26.02;45.18;99788.91;4975069;28;20054;-82
2022/07/26 07:21:35;;;;;;;5.15;2.60;;;;;;;26.12;44.91;99791.03;4982757;28;20066;-82
2022/07/26 07:24:02;;;;;;;4.47;2.50;;;;;;;26.19;44.90;99789.03;4970178;28;20406;-82
2022/07/26 07:26:28;;;;;;;8.73;2.78;;;;;;;26.18;44.84;99790.94;4982841;28;20038;-82
2022/07/26 07:28:55;;;;;;;8.23;2.95;;;;;;;26.22;44.95;99801.34;4985091;28;20042;-83
2022/07/26 07:31:23;;;;;;;5.57;2.97;;;;;;;26.23;45.28;99792.09;4954553;28;20136;-82
2022/07/26 07:33:56;;;;;;;7.47;2.83;;;;;;;26.25;44.99;99785.34;4981549;28;20039;-82
2022/07/26 07:36:23;;;;;;;5.40;2.60;;;;;;;26.27;44.87;99796.00;4953882;28;20411;-82
2022/07/26 07:38:49;;;;;;;9.90;3.00;;;;;;;26.26;45.00;99799.78;4963736;28;20043;-82
2022/07/26 07:41:18;;;;;;;4.88;2.97;;;;;;;26.30;44.66;99796.31;4958837;28;20099;-82
2022/07/26 07:43:45;;;;;;;9.50;2.85;;;;;;;26.16;44.47;99801.22;4964852;28;20070;-82
2022/07/26 07:46:12;;;;;;;5.70;2.90;;;;;;;26.14;44.47;99805.25;4983446;28;20046;-81
2022/07/26 07:48:39;;;;;;;3.90;2.78;;;;;;;26.20;45.02;99798.84;4996217;28;20050;-82
2022/07/26 07:51:13;;;;;;;5.75;3.03;;;;;;;26.22;44.36;99790.44;4968725;28;20141;-82
2022/07/26 07:53:39;;;;;;;10.82;3.30;;;;;;;26.19;44.58;99798.00;4950176;28;20038;-82
2022/07/26 07:56:06;;;;;;;11.05;2.63;;;;;;;26.24;44.60;99780.16;4982985;28;20050;-83
2022/07/26 07:58:33;;;;;;;7.60;2.63;;;;;;;26.26;43.88;99803.34;4982826;28;20190;-83
2022/07/26 08:01:01;;;;;;;7.10;2.97;;;;;;;26.29;44.08;99793.88;4972269;28;20039;-83
2022/07/26 08:03:27;;;;;;;5.88;2.72;;;;;;;26.31;43.76;99799.91;4976240;28;20133;-83
2022/07/26 08:06:05;;;;;;;6.15;2.58;;;;;;;26.31;43.69;99795.28;4946914;28;20664;-83
2022/07/26 08:08:33;;;;;;;6.35;3.08;;;;;;;26.30;43.34;99796.31;4948990;28;20043;-83
2022/07/26 08:10:59;;;;;;;5.13;2.30;;;;;;;26.31;43.54;99799.91;4932149;28;20077;-83
2022/07/26 08:13:27;;;;;;;7.22;2.72;;;;;;;26.23;43.40;99798.38;4949528;28;20066;-83
2022/07/26 08:15:54;;;;;;;6.40;2.42;;;;;;;26.19;43.55;99803.47;4949780;28;20058;-82
2022/07/26 08:18:22;;;;;;;2.85;2.35;;;;;;;26.26;43.04;99786.19;4943886;28;20094;-83
2022/07/26 08:20:51;;;;;;;7.03;2.90;;;;;;;26.32;43.07;99804.28;4948861;28;20231;-82
2022/07/26 08:23:19;;;;;;;4.80;2.10;;;;;;;26.32;42.76;99782.50;4925788;28;20050;-82
2022/07/26 08:25:46;;;;;;;6.25;2.10;;;;;;;26.35;42.58;99806.50;4951247;28;20548;-85
2022/07/26 08:28:26;;;;;;;5.72;2.58;;;;;;;26.34;41.94;99808.41;4964619;28;20050;-85
2022/07/26 08:31:13;;;;;;;4.53;2.67;;;;;;;26.36;42.37;99805.47;4930385;28;20132;-84
2022/07/26 08:33:41;;;;;;;7.78;2.75;;;;;;;26.33;42.50;99812.22;4959232;28;20038;-83
2022/07/26 08:36:13;;;;;;;4.88;2.53;;;;;;;26.23;41.39;99790.22;4967458;28;20124;-84
2022/07/26 08:38:40;;;;;;;4.70;2.50;;;;;;;25.96;41.45;99804.31;4968541;28;20046;-85
2022/07/26 08:41:07;;;;;;;5.35;2.10;;;;;;;26.03;41.23;99816.94;4965120;28;20060;-84
2022/07/26 08:43:35;;;;;;;5.72;2.05;;;;;;;26.11;41.86;99831.03;4980963;28;20463;-84
2022/07/26 08:46:22;;;;;;;5.53;1.88;;;;;;;26.05;40.93;99823.00;4998921;28;20513;-82
2022/07/26 08:48:56;;;;;;;4.55;2.22;;;;;;;26.12;40.41;99818.25;4980283;28;20093;-82
2022/07/26 08:51:25;;;;;;;4.90;1.90;;;;;;;26.20;40.69;99809.72;5011319;28;20943;-82
2022/07/26 08:53:58;;;;;;;2.60;1.83;;;;;;;26.04;39.74;99819.44;4999316;28;20758;-82
2022/07/26 08:56:35;;;;;;;5.05;1.95;;;;;;;26.05;40.16;99817.56;4982633;28;20053;-82
2022/07/26 08:59:14;;;;;;;4.35;2.13;;;;;;;26.09;39.85;99805.13;4978101;28;20532;-81
2022/07/26 09:01:54;;;;;;;5.45;2.00;;;;;;;26.12;40.15;99812.81;4927829;28;20066;-85
2022/07/26 09:04:24;;;;;;;4.28;2.00;;;;;;;26.24;40.99;99815.53;5013341;28;20053;-86
2022/07/26 09:07:00;;;;;;;4.07;2.00;;;;;;;26.21;40.01;99816.84;4934385;28;20707;-86
2022/07/26 09:09:28;;;;;;;11.75;2.50;;;;;;;26.13;40.30;99822.63;4981864;28;20410;-84
2022/07/26 09:11:55;;;;;;;6.30;2.38;;;;;;;26.12;40.71;99824.53;5011653;28;20054;-86
2022/07/26 09:14:35;;;;;;;4.85;1.80;;;;;;;26.04;39.67;99832.22;4996341;28;20054;-86
2022/07/26 09:17:02;;;;;;;6.43;2.33;;;;;;;26.01;39.74;99821.81;4943950;28;20153;-86
2022/07/26 09:19:28;;;;;;;3.92;2.05;;;;;;;25.87;40.08;99824.75;4978170;28;20042;-85
2022/07/26 09:21:56;;;;;;;7.22;1.92;;;;;;;25.76;39.84;99839.16;5015320;28;20046;-86
2022/07/26 09:24:29;;;;;;;4.25;2.08;;;;;;;25.88;40.01;99825.63;4953302;28;20047;-86
2022/07/26 09:26:56;;;;;;;;;;;;;;;25.85;40.45;99815.19;4978943;28;20042;-86
2022/07/26 09:29:23;;;;;;;5.20;2.17;;;;;;;26.12;40.24;99831.88;4997278;28;20329;-86
2022/07/26 09:31:49;;;;;;;6.90;2.13;;;;;;;26.16;39.73;99833.06;4952047;28;20057;-87
2022/07/26 09:34:24;;;;;;;2.97;2.00;;;;;;;26.12;39.60;99832.69;4973922;28;20123;-86
2022/07/26 09:36:52;;;;;;;2.60;2.00;;;;;;;26.17;40.28;99835.53;5013712;28;20990;-86
2022/07/26 09:39:19;;;;;;;3.20;1.75;;;;;;;26.13;39.68;99825.34;4965670;28;20057;-87
2022/07/26 09:42:07;;;;;;;7.53;2.20;;;;;;;26.18;39.82;99837.19;4962439;28;20051;-87
2022/07/26 09:44:56;;;;;;;2.60;1.92;;;;;;;26.17;39.42;99826.53;4956486;28;20581;-87
2022/07/26 09:47:43;;;;;;;3.97;1.90;;;;;;;25.98;38.30;99847.63;4945805;28;20391;-86
2022/07/26 09:50:20;;;;;;;4.03;1.95;;;;;;;26.04;38.79;99838.50;4978526;28;20047;-86
2022/07/26 09:53:11;;;;;;;2.88;1.60;;;;;;;25.92;38.11;99843.09;4945686;28;20054;-87
2022/07/26 09:55:43;;;;;;;3.35;1.58;;;;;;;26.02;38.75;99832.47;4971927;28;20150;-86
2022/07/26 09:58:15;;;;;;;4.82;1.85;;;;;;;26.15;38.75;99832.22;4987770;28;20042;-81
2022/07/26 10:00:47;;;;;;;3.40;2.03;;;;;;;26.12;37.87;99842.75;4982966;28;20050;-82
2022/07/26 10:03:14;;;;;;;3.78;1.98;;;;;;;26.20;38.55;99835.06;4983117;28;20049;-82
2022/07/26 10:05:41;;;;;;;4.63;1.70;;;;;;;26.24;38.62;99842.75;4986440;28;20374;-82
2022/07/26 10:08:08;;;;;;;4.25;2.05;;;;;;;26.23;38.65;99843.81;4967214;28;20070;-82
2022/07/26 10:10:48;;;;;;;5.95;2.13;;;;;;;26.20;38.29;99845.09;4997581;28;20047;-82
2022/07/26 10:13:15;;;;;;;3.22;1.50;;;;;;;26.32;38.27;99845.09;4968735;28;20059;-81
2022/07/26 10:15:47;;;;;;;5.68;1.83;;;;;;;26.29;37.79;99845.59;4951742;28;20055;-83
2022/07/26 10:18:36;;;;;;;3.05;1.77;;;;;;;26.22;37.35;99840.25;4979524;28;20074;-82
2022/07/26 10:21:24;;;;;;;3.50;1.63;;;;;;;26.28;37.55;99833.88;4952056;28;20097;-82
2022/07/26 10:23:52;;;;;;;3.25;1.65;;;;;;;26.35;37.78;99841.91;4962443;28;20502;-86
2022/07/26 10:26:31;;;;;;;2.15;1.58;;;;;;;26.14;37.07;99846.06;4944222;28;20043;-86
2022/07/26 10:29:15;;;;;;;10.88;2.05;;;;;;;26.18;37.00;99842.63;4960556;28;21445;-87
2022/07/26 10:31:48;;;;;;;4.53;1.73;;;;;;;26.23;36.67;99849.25;4962753;28;20050;-86
2022/07/26 10:34:31;;;;;;;2.38;1.30;;;;;;;26.05;35.92;99842.88;4944681;28;20444;-88
2022/07/26 10:37:00;;;;;;;5.15;1.67;;;;;;;26.14;36.76;99846.91;4967726;28;20061;-87
2022/07/26 10:39:27;;;;;;;4.18;1.55;;;;;;;26.20;37.37;99851.41;4932503;28;20047;-86
2022/07/26 10:41:59;;;;;;;1.80;1.33;;;;;;;26.29;37.13;99845.59;4970752;28;20046;-86
2022/07/26 10:44:30;;;;;;;3.95;1.65;;;;;;;26.33;36.70;99846.75;4984618;28;20046;-86
2022/07/26 10:47:06;;;;;;;2.92;1.60;;;;;;;26.25;36.91;99849.84;4972398;28;20073;-86
2022/07/26 10:49:37;;;;;;;1.75;1.60;;;;;;;26.33;37.03;99841.31;4997599;28;20375;-87
2022/07/26 10:52:07;;;;;;;4.55;1.60;;;;;;;26.37;36.71;99851.47;4985227;28;20042;-86
2022/07/26 10:55:09;;;;;;;4.57;1.95;;;;;;;26.41;37.16;99846.41;4968511;28;20053;-86
2022/07/26 10:57:41;;;;;;;3.72;1.92;;;;;;;26.59;37.08;99834.56;4902211;28;20054;-86
2022/07/26 11:00:16;;;;;;;3.22;1.80;;;;;;;26.71;37.15;99837.22;4989407;28;20042;-87
2022/07/26 11:02:47;;;;;;;2.70;1.35;;;;;;;26.64;36.92;99851.00;4986265;28;20050;-87
2022/07/26 11:05:16;;;;;;;4.75;1.45;;;;;;;26.52;36.56;99853.75;4949242;28;20130;-86
2022/07/26 11:07:52;;;;;;;5.97;1.55;;;;;;;26.42;36.78;99854.31;4968661;28;20129;-86
2022/07/26 11:10:27;;;;;;;2.42;1.55;;;;;;;26.28;35.73;99852.94;4997812;28;20046;-86
2022/07/26 11:13:00;;;;;;;6.13;1.70;;;;;;;26.19;36.63;99854.34;4996823;28;20042;-87
2022/07/26 11:15:26;;;;;;;3.53;1.60;;;;;;;26.14;36.42;99843.34;4998682;28;20046;-83
2022/07/26 11:18:12;;;;;;;3.58;1.90;;;;;;;26.14;36.83;99844.16;4982369;28;20057;-82
2022/07/26 11:20:39;;;;;;;2.05;1.67;;;;;;;26.17;37.18;99846.41;4996238;28;20047;-87
2022/07/26 11:23:30;;;;;;;5.43;1.90;;;;;;;25.87;36.78;99849.25;4984060;28;20458;-83
2022/07/26 11:26:08;;;;;;;2.35;1.42;;;;;;;26.05;36.89;99836.59;4952461;28;20410;-82
2022/07/26 11:28:58;;;;;;;3.67;1.80;;;;;;;26.06;37.63;99836.38;4972370;28;20038;-82
2022/07/26 11:31:40;;;;;;;3.03;1.95;;;;;;;26.04;37.32;99840.41;4939103;28;20064;-82
2022/07/26 11:34:22;;;;;;;1.63;1.50;;;;;;;26.26;37.50;99843.34;4920314;28;20051;-83
2022/07/26 11:36:53;;;;;;;3.97;1.70;;;;;;;26.33;37.24;99854.91;4982339;28;20044;-82
2022/07/26 11:39:27;;;;;;;2.55;1.55;;;;;;;26.30;37.03;99841.78;4979263;28;20129;-83
2022/07/26 11:41:58;;;;;;;2.78;1.75;;;;;;;26.47;37.38;99836.44;4986048;28;20057;-82
2022/07/26 11:44:26;;;;;;;8.32;1.98;;;;;;;26.56;36.90;99832.28;4978114;28;20058;-82
2022/07/26 11:46:53;;;;;;;2.40;1.58;;;;;;;26.64;36.82;99842.81;4970364;28;20053;-86
2022/07/26 11:49:32;;;;;;;5.15;1.67;;;;;;;26.57;36.77;99844.84;5012023;28;20046;-86
2022/07/26 11:52:19;;;;;;;5.45;1.85;;;;;;;26.61;37.16;99843.28;4969742;28;20061;-86
2022/07/26 11:54:52;;;;;;;2.33;1.65;;;;;;;26.71;37.24;99837.22;4996291;28;20072;-86
2022/07/26 11:57:19;;;;;;;4.18;1.70;;;;;;;26.85;36.77;99844.88;4978779;28;20038;-87
2022/07/26 11:59:46;;;;;;;2.85;1.60;;;;;;;26.59;36.76;99843.53;4980295;28;20047;-87
2022/07/26 12:02:13;;;;;;;2.58;1.70;;;;;;;26.48;36.82;99838.91;4982196;28;20045;-83